createdAt,value
2019-02-26T00:01:18.762Z,58.20
2019-02-26T00:03:47.744Z,62.33
2019-02-26T00:06:18.563Z,62.17
2019-02-26T00:08:51.245Z,66.10
2019-02-26T00:11:19.435Z,66.43
2019-02-26T00:13:50.738Z,66.90
2019-02-26T00:16:20.557Z,67.10
2019-02-26T00:18:50.086Z,67.27
2019-02-26T00:21:20.452Z,64.60
2019-02-26T00:23:51.456Z,65.50
2019-02-26T00:26:22.439Z,65.90
2019-02-26T00:28:51.901Z,66.20
2019-02-26T00:31:22.241Z,62.10
2019-02-26T00:33:52.422Z,62.47
2019-02-26T00:36:21.882Z,60.03
2019-02-26T00:38:51.336Z,59.87
2019-02-26T00:41:24.447Z,58.93
2019-02-26T00:43:53.518Z,59.83
2019-02-26T00:46:24.233Z,61.50
2019-02-26T00:48:56.178Z,60.83
2019-02-26T00:51:26.916Z,61.27
2019-02-26T00:53:57.534Z,62.20
2019-02-26T00:56:29.373Z,64.27
2019-02-26T00:58:58.663Z,61.53
2019-02-26T01:01:28.108Z,62.53
2019-02-26T01:03:57.462Z,63.33
2019-02-26T01:06:28.916Z,65.20
2019-02-26T01:08:59.078Z,65.73
2019-02-26T01:11:30.267Z,64.33
2019-02-26T01:13:59.789Z,63.23
2019-02-26T01:16:29.136Z,67.00
2019-02-26T01:18:58.549Z,65.67
2019-02-26T01:21:29.092Z,67.77
2019-02-26T01:24:01.607Z,65.40
2019-02-26T01:26:30.369Z,62.50
2019-02-26T01:29:00.982Z,68.90
2019-02-26T01:31:32.106Z,66.47
2019-02-26T01:34:01.662Z,66.47
2019-02-26T01:36:31.097Z,68.53
2019-02-26T01:39:00.466Z,65.93
2019-02-26T01:41:29.973Z,66.17
2019-02-26T01:43:59.433Z,62.77
2019-02-26T01:46:30.013Z,67.67
2019-02-26T01:49:02.097Z,64.87
2019-02-26T01:51:31.730Z,66.60
2019-02-26T01:54:01.131Z,64.40
2019-02-26T01:56:30.543Z,63.47
2019-02-26T01:59:02.356Z,64.77
2019-02-26T02:01:31.099Z,65.13
2019-02-26T02:04:00.442Z,63.10
2019-02-26T02:07:04.232Z,66.00
2019-02-26T02:09:34.485Z,62.33
2019-02-26T02:12:04.766Z,63.17
2019-02-26T02:14:35.407Z,64.97
2019-02-26T02:19:51.823Z,66.70
2019-02-26T02:22:21.543Z,64.07
2019-02-26T02:24:53.398Z,68.40
2019-02-26T02:27:26.850Z,68.30
2019-02-26T02:29:55.403Z,69.77
2019-02-26T02:32:26.637Z,68.57
2019-02-26T02:35:00.558Z,69.00
2019-02-26T02:37:30.042Z,67.67
2019-02-26T02:39:58.898Z,66.90
2019-02-26T02:42:28.309Z,69.20
2019-02-26T02:44:57.851Z,67.93
2019-02-26T02:47:30.646Z,68.33
2019-02-26T02:49:59.006Z,68.07
2019-02-26T02:52:30.420Z,66.03
2019-02-26T02:54:59.690Z,67.57
2019-02-26T02:57:30.138Z,66.97
2019-02-26T03:00:02.675Z,69.70
2019-02-26T03:02:30.537Z,68.93
2019-02-26T03:04:59.299Z,69.23
2019-02-26T03:07:29.443Z,67.87
2019-02-26T03:10:00.473Z,70.00
2019-02-26T03:12:30.686Z,68.20
2019-02-26T03:15:02.112Z,69.93
2019-02-26T03:17:29.975Z,69.87
2019-02-26T03:20:01.639Z,68.63
2019-02-26T03:22:29.319Z,68.87
2019-02-26T03:24:59.603Z,69.53
2019-02-26T03:27:31.351Z,70.53
2019-02-26T03:30:01.825Z,69.60
2019-02-26T03:32:29.653Z,72.03
2019-02-26T03:35:02.044Z,68.67
2019-02-26T03:37:31.237Z,65.93
2019-02-26T03:40:00.824Z,68.23
2019-02-26T03:42:30.341Z,68.50
2019-02-26T03:45:03.192Z,69.93
2019-02-26T03:47:31.651Z,70.27
2019-02-26T03:50:01.141Z,69.30
2019-02-26T03:52:32.118Z,69.83
2019-02-26T03:55:03.487Z,68.27
2019-02-26T03:57:33.349Z,70.20
2019-02-26T04:00:05.714Z,71.13
2019-02-26T04:02:33.922Z,70.07
2019-02-26T04:05:06.005Z,70.50
2019-02-26T04:07:36.106Z,69.87
2019-02-26T04:10:05.941Z,69.17
2019-02-26T04:12:39.196Z,72.90
2019-02-26T04:15:07.987Z,70.17
2019-02-26T04:17:39.490Z,70.00
2019-02-26T04:20:09.392Z,70.93
2019-02-26T04:22:40.183Z,68.27
2019-02-26T04:25:49.501Z,71.10
2019-02-26T04:28:21.740Z,71.13
2019-02-26T04:31:22.833Z,71.83
2019-02-26T04:34:48.463Z,69.57
2019-02-26T04:38:12.803Z,66.50
2019-02-26T04:41:13.387Z,66.83
2019-02-26T04:44:28.825Z,67.40
2019-02-26T04:47:12.984Z,67.87
2019-02-26T04:49:43.180Z,70.73
2019-02-26T04:52:14.386Z,70.77
2019-02-26T04:54:44.258Z,68.73
2019-02-26T04:57:13.935Z,70.33
2019-02-26T04:59:44.045Z,70.13
2019-02-26T05:02:16.309Z,71.77
2019-02-26T05:04:45.792Z,68.60
2019-02-26T05:07:19.290Z,72.07
2019-02-26T05:09:50.021Z,69.77
2019-02-26T05:12:18.813Z,70.80
2019-02-26T05:14:48.324Z,68.57
2019-02-26T05:17:21.851Z,67.63
2019-02-26T05:19:51.803Z,68.63
2019-02-26T05:22:25.571Z,68.37
2019-02-26T05:24:53.761Z,69.70
2019-02-26T05:27:24.827Z,70.97
2019-02-26T05:29:54.757Z,67.33
2019-02-26T05:32:43.552Z,68.20
2019-02-26T05:35:17.347Z,67.03
2019-02-26T05:37:46.650Z,66.77
2019-02-26T05:40:18.947Z,62.97
2019-02-26T05:42:47.260Z,62.93
2019-02-26T05:45:16.818Z,67.43
2019-02-26T05:47:48.873Z,66.23
2019-02-26T05:50:18.453Z,61.40
2019-02-26T05:52:50.273Z,64.00
2019-02-26T05:55:20.601Z,63.73
2019-02-26T05:57:50.422Z,60.93
2019-02-26T06:00:22.684Z,65.53
2019-02-26T06:02:51.171Z,64.13
2019-02-26T06:05:23.396Z,67.50
2019-02-26T06:07:52.299Z,65.43
2019-02-26T06:10:24.310Z,64.23
2019-02-26T06:12:53.003Z,65.53
2019-02-26T06:15:23.111Z,65.40
2019-02-26T06:17:55.833Z,62.67
2019-02-26T06:20:28.087Z,60.33
2019-02-26T06:22:56.347Z,61.60
2019-02-26T06:25:27.670Z,62.23
2019-02-26T06:28:02.237Z,61.07
2019-02-26T06:30:32.338Z,59.33
2019-02-26T06:33:04.309Z,60.33
2019-02-26T06:35:36.614Z,54.97
2019-02-26T06:38:09.326Z,61.83
2019-02-26T06:40:39.280Z,60.07
2019-02-26T06:43:09.483Z,59.43
2019-02-26T06:45:41.287Z,58.20
2019-02-26T06:48:14.670Z,67.63
2019-02-26T06:50:43.659Z,68.07
2019-02-26T06:53:16.670Z,64.90
2019-02-26T06:55:46.524Z,67.67
2019-02-26T06:58:24.226Z,63.00
2019-02-26T07:00:55.422Z,64.90
2019-02-26T07:03:26.285Z,64.23
2019-02-26T07:05:57.135Z,61.20
2019-02-26T07:08:28.563Z,57.37
2019-02-26T07:10:57.907Z,58.07
2019-02-26T07:13:29.176Z,54.90
2019-02-26T07:16:00.311Z,56.27
2019-02-26T07:18:29.888Z,55.87
2019-02-26T07:21:00.296Z,59.30
2019-02-26T07:23:32.608Z,57.97
2019-02-26T07:26:01.163Z,60.23
2019-02-26T07:28:30.725Z,57.43
2019-02-26T07:31:02.189Z,55.33
2019-02-26T07:33:34.150Z,52.67
2019-02-26T07:36:04.156Z,51.67
2019-02-26T07:38:40.873Z,49.40
2019-02-26T07:41:06.689Z,54.60
2019-02-26T07:43:38.799Z,54.83
2019-02-26T07:46:07.114Z,54.47
2019-02-26T07:48:38.719Z,54.37
2019-02-26T07:51:11.056Z,52.93
2019-02-26T07:53:44.402Z,55.83
2019-02-26T07:56:11.635Z,58.93
2019-02-26T07:58:43.121Z,56.57
2019-02-26T08:01:12.632Z,56.73
2019-02-26T08:03:46.455Z,55.47
2019-02-26T08:06:16.659Z,51.73
2019-02-26T08:08:48.450Z,51.13
2019-02-26T08:11:17.309Z,53.57
2019-02-26T08:13:46.676Z,53.07
2019-02-26T08:16:20.630Z,50.13
2019-02-26T08:18:52.189Z,52.17
2019-02-26T08:21:45.485Z,49.00
2019-02-26T08:24:17.131Z,49.80
2019-02-26T08:26:47.544Z,49.80
2019-02-26T08:29:17.772Z,50.23
2019-02-26T08:31:47.475Z,50.00
2019-02-26T08:34:17.009Z,49.83
2019-02-26T08:36:46.793Z,50.80
2019-02-26T08:39:15.931Z,50.73
2019-02-26T08:42:01.369Z,44.93
2019-02-26T08:44:30.211Z,36.80
2019-02-26T08:46:58.942Z,36.53
2019-02-26T08:49:27.750Z,40.87
2019-02-26T08:52:24.075Z,39.07
2019-02-26T08:54:51.347Z,38.43
2019-02-26T08:57:20.813Z,38.40
2019-02-26T08:59:52.061Z,35.90
2019-02-26T09:02:23.128Z,36.73
2019-02-26T09:04:52.666Z,31.60
2019-02-26T09:07:24.448Z,37.53
2019-02-26T09:09:57.464Z,36.23
2019-02-26T09:12:27.243Z,37.93
2019-02-26T09:14:58.900Z,39.27
2019-02-26T09:17:30.458Z,39.43
2019-02-26T09:20:06.975Z,41.37
2019-02-26T09:22:30.960Z,37.93
2019-02-26T09:25:02.183Z,32.50
2019-02-26T09:27:32.101Z,36.80
2019-02-26T09:30:03.480Z,36.90
2019-02-26T09:32:37.317Z,37.80
2019-02-26T09:35:06.944Z,37.90
2019-02-26T09:37:36.357Z,35.97
2019-02-26T09:40:06.507Z,35.70
2019-02-26T09:42:39.071Z,22.40
2019-02-26T09:45:10.755Z,33.93
2019-02-26T09:47:42.037Z,33.37
2019-02-26T09:50:15.360Z,34.73
2019-02-26T09:52:47.598Z,33.00
2019-02-26T09:55:17.790Z,35.50
2019-02-26T09:57:49.207Z,24.70
2019-02-26T10:00:40.492Z,35.93
2019-02-26T10:03:12.725Z,34.63
2019-02-26T10:05:41.626Z,35.57
2019-02-26T10:08:11.174Z,33.80
2019-02-26T10:10:40.655Z,22.80
2019-02-26T10:13:11.209Z,33.60
2019-02-26T10:15:42.778Z,33.50
2019-02-26T10:18:11.938Z,34.00
2019-02-26T10:20:43.326Z,31.63
2019-02-26T10:23:12.395Z,29.07
2019-02-26T10:25:42.896Z,20.93
2019-02-26T10:28:14.202Z,27.77
2019-02-26T10:30:44.632Z,28.70
2019-02-26T10:33:18.250Z,28.43
2019-02-26T10:35:49.735Z,24.20
2019-02-26T10:38:18.456Z,25.90
2019-02-26T10:40:53.788Z,27.13
2019-02-26T10:43:20.442Z,25.70
2019-02-26T10:45:50.536Z,26.63
2019-02-26T10:48:22.834Z,18.00
2019-02-26T10:50:53.320Z,25.33
2019-02-26T10:53:34.497Z,37.57
2019-02-26T10:56:05.137Z,35.60
2019-02-26T10:58:34.743Z,23.20
2019-02-26T11:01:05.380Z,31.50
2019-02-26T11:03:37.940Z,32.30
2019-02-26T11:06:07.391Z,26.97
2019-02-26T11:08:37.656Z,25.27
2019-02-26T11:11:08.201Z,19.27
2019-02-26T11:13:40.730Z,22.03
2019-02-26T11:16:10.774Z,21.40
2019-02-26T11:18:42.552Z,21.67
2019-02-26T11:21:11.330Z,15.20
2019-02-26T11:23:41.988Z,16.27
2019-02-26T11:26:13.154Z,20.17
2019-02-26T11:28:45.472Z,22.03
2019-02-26T11:31:33.944Z,18.67
2019-02-26T11:34:06.656Z,22.90
2019-02-26T11:36:36.506Z,23.20
2019-02-26T11:39:09.250Z,21.37
2019-02-26T11:41:39.378Z,18.53
2019-02-26T11:44:12.498Z,21.20
2019-02-26T11:46:39.924Z,20.77
2019-02-26T11:49:11.876Z,22.13
2019-02-26T11:51:42.458Z,18.10
2019-02-26T11:54:15.047Z,23.87
2019-02-26T11:56:47.161Z,23.07
2019-02-26T11:59:16.932Z,21.87
2019-02-26T12:01:47.830Z,17.47
2019-02-26T12:04:17.335Z,23.13
2019-02-26T12:06:46.713Z,23.40
2019-02-26T12:09:17.777Z,24.17
2019-02-26T12:11:49.531Z,17.30
2019-02-26T12:14:21.538Z,23.63
2019-02-26T12:16:50.200Z,25.47
2019-02-26T12:19:19.593Z,25.27
2019-02-26T12:21:49.508Z,16.77
2019-02-26T12:24:20.402Z,25.87
2019-02-26T12:26:50.472Z,27.07
2019-02-26T12:29:23.584Z,27.60
2019-02-26T12:31:55.548Z,30.40
2019-02-26T12:34:24.272Z,32.70
2019-02-26T12:36:57.169Z,32.77
2019-02-26T12:39:25.755Z,18.67
2019-02-26T12:41:56.090Z,37.63
2019-02-26T12:44:25.626Z,36.87
2019-02-26T12:46:56.836Z,41.67
2019-02-26T12:49:29.407Z,44.83
2019-02-26T12:51:59.836Z,47.27
2019-02-26T12:54:33.220Z,28.07
2019-02-26T12:57:04.275Z,51.63
2019-02-26T12:59:33.107Z,52.10
2019-02-26T13:02:04.727Z,52.67
2019-02-26T13:04:33.705Z,58.57
2019-02-26T13:07:05.413Z,36.87
2019-02-26T13:09:34.248Z,61.97
2019-02-26T13:12:05.920Z,65.83
2019-02-26T13:14:36.623Z,68.67
2019-02-26T13:17:06.067Z,69.17
2019-02-26T13:19:36.973Z,34.20
2019-02-26T13:22:08.892Z,73.33
2019-02-26T13:24:37.784Z,77.67
2019-02-26T13:27:08.368Z,83.33
2019-02-26T13:29:42.508Z,84.53
2019-02-26T13:32:13.107Z,54.33
2019-02-26T13:34:40.109Z,90.97
2019-02-26T13:37:09.790Z,93.07
2019-02-26T13:39:41.538Z,97.37
2019-02-26T13:42:13.966Z,53.47
2019-02-26T13:44:41.646Z,103.97
2019-02-26T13:47:11.111Z,105.60
2019-02-26T13:49:40.587Z,110.93
2019-02-26T13:52:10.168Z,102.70
2019-02-26T13:54:40.725Z,68.43
2019-02-26T13:57:11.759Z,116.03
2019-02-26T13:59:41.541Z,115.23
2019-02-26T14:02:11.187Z,76.90
2019-02-26T14:04:41.870Z,93.17
2019-02-26T14:07:13.541Z,121.60
2019-02-26T14:09:42.905Z,122.17
2019-02-26T14:12:12.585Z,70.77
2019-02-26T14:14:42.060Z,119.07
2019-02-26T14:17:11.535Z,125.13
2019-02-26T14:19:40.972Z,126.00
2019-02-26T14:22:10.509Z,66.37
2019-02-26T14:24:40.268Z,81.93
2019-02-26T14:27:10.117Z,131.40
2019-02-26T14:29:39.592Z,126.13
2019-02-26T14:32:10.128Z,60.97
2019-02-26T14:34:39.639Z,126.50
2019-02-26T14:37:10.307Z,127.27
2019-02-26T14:39:39.763Z,125.93
2019-02-26T14:42:10.863Z,64.57
2019-02-26T14:44:40.358Z,128.57
2019-02-26T14:47:09.936Z,129.47
2019-02-26T14:49:39.490Z,129.10
2019-02-26T14:52:10.111Z,82.37
2019-02-26T14:54:39.534Z,129.97
2019-02-26T14:57:09.009Z,133.20
2019-02-26T14:59:39.694Z,133.27
2019-02-26T15:02:09.663Z,99.97
2019-02-26T15:04:40.805Z,140.03
2019-02-26T15:07:10.301Z,142.03
2019-02-26T15:09:39.838Z,138.97
2019-02-26T15:12:11.159Z,141.67
2019-02-26T15:14:41.652Z,127.77
2019-02-26T15:17:12.341Z,142.87
2019-02-26T15:19:49.670Z,142.03
2019-02-26T15:22:14.931Z,144.93
2019-02-26T15:24:44.412Z,125.47
2019-02-26T15:27:13.915Z,150.23
2019-02-26T15:29:43.302Z,152.13
2019-02-26T15:32:12.743Z,151.20
2019-02-26T15:34:42.215Z,96.83
2019-02-26T15:37:30.867Z,74.70
2019-02-26T15:40:01.712Z,151.07
2019-02-26T15:42:31.182Z,154.93
2019-02-26T15:45:00.841Z,147.93
2019-02-26T15:47:32.578Z,147.50
2019-02-26T15:50:02.450Z,145.53
2019-02-26T15:52:31.985Z,147.17
2019-02-26T15:55:01.707Z,137.23
2019-02-26T15:57:31.745Z,137.53
2019-02-26T16:00:06.346Z,131.30
2019-02-26T16:02:36.757Z,126.27
2019-02-26T16:05:06.442Z,122.17
2019-02-26T16:07:38.186Z,123.10
2019-02-26T16:10:08.825Z,117.93
2019-02-26T16:12:39.681Z,113.20
2019-02-26T16:15:11.841Z,95.77
2019-02-26T16:17:41.288Z,112.20
2019-02-26T16:20:13.073Z,115.00
2019-02-26T16:22:42.786Z,110.13
2019-02-26T16:25:12.373Z,107.30
2019-02-26T16:27:42.016Z,96.37
2019-02-26T16:30:17.399Z,104.43
2019-02-26T16:32:48.918Z,109.07
2019-02-26T16:35:18.796Z,110.40
2019-02-26T16:37:50.180Z,109.17
2019-02-26T16:40:20.076Z,109.57
2019-02-26T16:42:50.854Z,112.77
2019-02-26T16:45:22.155Z,111.70
2019-02-26T16:47:52.678Z,111.40
2019-02-26T16:50:22.792Z,113.07
2019-02-26T16:52:52.321Z,117.47
2019-02-26T16:55:22.208Z,128.97
2019-02-26T16:57:51.652Z,128.57
2019-02-26T17:00:23.988Z,131.53
2019-02-26T17:02:53.387Z,129.93
2019-02-26T17:05:23.517Z,134.23
2019-02-26T17:07:53.246Z,136.07
2019-02-26T17:10:22.742Z,133.23
2019-02-26T17:12:55.063Z,135.17
2019-02-26T17:15:28.634Z,135.27
2019-02-26T17:17:58.130Z,135.53
2019-02-26T17:20:27.723Z,137.60
2019-02-26T17:22:57.222Z,137.23
2019-02-26T17:25:28.492Z,138.03
2019-02-26T17:28:00.072Z,138.20
2019-02-26T17:30:31.489Z,140.37
2019-02-26T17:33:00.925Z,142.90
2019-02-26T17:35:30.528Z,137.33
2019-02-26T17:38:00.126Z,131.43
2019-02-26T17:40:33.923Z,127.80
2019-02-26T17:43:03.970Z,128.87
2019-02-26T17:45:37.347Z,130.63
2019-02-26T17:48:06.216Z,127.37
2019-02-26T17:50:36.613Z,128.57
2019-02-26T17:53:06.335Z,129.90
2019-02-26T17:55:36.170Z,128.33
2019-02-26T17:58:09.792Z,132.50
2019-02-26T18:00:39.323Z,129.70
2019-02-26T18:03:10.038Z,133.10
2019-02-26T18:05:50.579Z,130.03
2019-02-26T18:08:11.645Z,132.50
2019-02-26T18:10:41.352Z,129.40
2019-02-26T18:13:10.930Z,134.57
2019-02-26T18:15:40.749Z,134.20
2019-02-26T18:18:11.542Z,131.03
2019-02-26T18:20:41.440Z,131.47
2019-02-26T18:23:11.990Z,129.90
2019-02-26T18:25:42.391Z,129.57
2019-02-26T18:28:12.180Z,130.33
2019-02-26T18:30:41.719Z,128.77
2019-02-26T18:33:11.477Z,130.90
2019-02-26T18:35:43.783Z,125.03
2019-02-26T18:38:13.624Z,131.20
2019-02-26T18:40:43.813Z,126.93
2019-02-26T18:43:14.987Z,127.03
2019-02-26T18:45:44.810Z,130.33
2019-02-26T18:48:15.701Z,129.67
2019-02-26T18:50:45.635Z,129.87
2019-02-26T18:53:16.690Z,130.43
2019-02-26T18:55:46.612Z,132.70
2019-02-26T18:58:17.056Z,138.27
2019-02-26T19:00:46.709Z,138.70
2019-02-26T19:03:16.798Z,149.40
2019-02-26T19:05:47.128Z,147.57
2019-02-26T19:08:18.934Z,150.03
2019-02-26T19:10:50.865Z,145.07
2019-02-26T19:13:21.113Z,137.67
2019-02-26T19:15:50.746Z,135.43
2019-02-26T19:18:20.833Z,136.03
2019-02-26T19:20:50.881Z,132.40
2019-02-26T19:23:21.119Z,129.40
2019-02-26T19:25:51.363Z,133.17
2019-02-26T19:28:21.027Z,135.70
2019-02-26T19:30:51.074Z,135.63
2019-02-26T19:33:21.689Z,143.00
2019-02-26T19:35:53.892Z,141.10
2019-02-26T19:38:27.274Z,137.23
2019-02-26T19:40:56.752Z,137.20
2019-02-26T19:43:28.834Z,134.77
2019-02-26T19:45:59.241Z,132.63
2019-02-26T19:48:33.883Z,133.73
2019-02-26T19:51:03.933Z,133.73
2019-02-26T19:53:35.180Z,134.40
2019-02-26T19:56:05.505Z,134.87
2019-02-26T19:58:35.801Z,131.47
2019-02-26T20:01:05.803Z,129.73
2019-02-26T20:03:39.852Z,126.47
2019-02-26T20:06:08.071Z,127.67
2019-02-26T20:08:38.474Z,129.50
2019-02-26T20:11:08.607Z,128.40
2019-02-26T20:13:42.057Z,127.00
2019-02-26T20:16:09.958Z,129.83
2019-02-26T20:18:40.084Z,128.40
2019-02-26T20:21:09.908Z,126.70
2019-02-26T20:23:41.863Z,129.23
2019-02-26T20:26:16.162Z,123.77
2019-02-26T20:28:43.280Z,124.30
2019-02-26T20:31:13.333Z,122.77
2019-02-26T20:33:43.425Z,125.83
2019-02-26T20:36:17.628Z,127.43
2019-02-26T20:38:45.074Z,127.87
2019-02-26T20:41:14.934Z,125.60
2019-02-26T20:43:44.671Z,126.47
2019-02-26T20:46:14.213Z,128.07
2019-02-26T20:48:44.092Z,128.90
2019-02-26T20:51:14.075Z,124.27
2019-02-26T20:53:43.747Z,129.87
2019-02-26T20:56:13.563Z,134.23
2019-02-26T20:58:44.922Z,133.43
2019-02-26T21:01:14.618Z,130.07
2019-02-26T21:03:46.914Z,124.00
2019-02-26T21:06:18.058Z,124.37
2019-02-26T21:08:49.711Z,125.63
2019-02-26T21:11:23.233Z,125.53
2019-02-26T21:13:52.855Z,124.93
2019-02-26T21:16:24.253Z,126.33
2019-02-26T21:18:55.910Z,127.97
2019-02-26T21:21:27.265Z,128.57
2019-02-26T21:24:00.466Z,124.70
2019-02-26T21:26:29.629Z,122.87
2019-02-26T21:28:59.618Z,124.43
2019-02-26T21:31:28.990Z,126.57
2019-02-26T21:33:58.534Z,129.10
2019-02-26T21:36:28.494Z,125.97
2019-02-26T21:38:57.965Z,124.87
2019-02-26T21:41:28.563Z,118.73
2019-02-26T21:43:58.054Z,124.00
2019-02-26T21:46:29.293Z,125.10
2019-02-26T21:48:58.750Z,122.63
2019-02-26T21:51:33.720Z,125.03
2019-02-26T21:54:00.920Z,127.60
2019-02-26T21:56:30.495Z,127.83
2019-02-26T21:59:02.239Z,125.10
2019-02-26T22:01:31.623Z,127.73
2019-02-26T22:04:03.794Z,126.37
2019-02-26T22:06:34.590Z,122.33
2019-02-26T22:09:04.405Z,124.47
2019-02-26T22:11:34.133Z,121.40
2019-02-26T22:14:03.604Z,127.17
2019-02-26T22:16:33.023Z,124.23
2019-02-26T22:19:04.722Z,126.23
2019-02-26T22:21:33.634Z,114.83
2019-02-26T22:24:04.631Z,122.57
2019-02-26T22:26:34.207Z,125.80
2019-02-26T22:29:04.962Z,125.07
2019-02-26T22:31:34.640Z,124.23
2019-02-26T22:34:04.116Z,124.83
2019-02-26T22:36:34.746Z,125.83
2019-02-26T22:39:05.566Z,126.00
2019-02-26T22:41:36.203Z,123.87
2019-02-26T22:44:07.078Z,118.00
2019-02-26T22:46:37.764Z,115.13
2019-02-26T22:49:08.453Z,108.67
2019-02-26T22:51:39.059Z,101.73
2019-02-26T22:54:10.434Z,104.90
2019-02-26T22:56:40.082Z,96.60
2019-02-26T22:59:12.818Z,102.23
2019-02-26T23:01:46.834Z,91.77
2019-02-26T23:04:35.512Z,92.83
2019-02-26T23:07:06.079Z,90.50
2019-02-26T23:09:37.488Z,88.37
2019-02-26T23:12:08.138Z,90.30
2019-02-26T23:14:39.299Z,96.33
2019-02-26T23:17:13.360Z,103.77
2019-02-26T23:19:42.775Z,108.40
2019-02-26T23:22:13.537Z,104.50
2019-02-26T23:24:44.477Z,99.77
2019-02-26T23:27:16.729Z,97.50
2019-02-26T23:29:46.183Z,90.50
2019-02-26T23:32:16.775Z,92.87
2019-02-26T23:35:03.396Z,91.53
2019-02-26T23:37:34.713Z,91.97
2019-02-26T23:40:27.411Z,95.27
2019-02-26T23:42:58.313Z,98.17
2019-02-26T23:45:27.791Z,100.57
2019-02-26T23:47:57.254Z,103.67
2019-02-26T23:50:27.793Z,86.73
2019-02-26T23:53:00.927Z,81.87
2019-02-26T23:55:32.183Z,85.27
2019-02-26T23:58:01.697Z,84.90
